sensor_id;sensor_type;location;lat;lon;timestamp;P1;durP1;ratioP1;P2;durP2;ratioP2
72573;SDS011;60603;52.548;13.420;2022-09-09T00:00:54;19.38;;;10.23;;
72573;SDS011;60603;52.548;13.420;2022-09-09T00:03:35;18.98;;;10.57;;
72573;SDS011;60603;52.548;13.420;2022-09-09T00:06:10;17.25;;;9.95;;
72573;SDS011;60603;52.548;13.420;2022-09-09T00:08:48;18.50;;;10.63;;
72573;SDS011;60603;52.548;13.420;2022-09-09T00:11:24;19.42;;;10.50;;
72573;SDS011;60603;52.548;13.420;2022-09-09T00:13:54;17.85;;;9.90;;
72573;SDS011;60603;52.548;13.420;2022-09-09T00:16:24;20.55;;;10.73;;
72573;SDS011;60603;52.548;13.420;2022-09-09T00:19:02;19.15;;;10.20;;
72573;SDS011;60603;52.548;13.420;2022-09-09T00:21:33;18.48;;;9.52;;
72573;SDS011;60603;52.548;13.420;2022-09-09T00:24:00;22.10;;;10.85;;
72573;SDS011;60603;52.548;13.420;2022-09-09T00:27:08;19.50;;;9.95;;
72573;SDS011;60603;52.548;13.420;2022-09-09T00:29:38;17.00;;;9.82;;
72573;SDS011;60603;52.548;13.420;2022-09-09T00:32:18;20.20;;;10.77;;
72573;SDS011;60603;52.548;13.420;2022-09-09T00:34:49;20.50;;;10.35;;
72573;SDS011;60603;52.548;13.420;2022-09-09T00:37:19;19.02;;;10.38;;
72573;SDS011;60603;52.548;13.420;2022-09-09T00:39:46;20.40;;;10.68;;
72573;SDS011;60603;52.548;13.420;2022-09-09T00:42:14;20.05;;;10.50;;
72573;SDS011;60603;52.548;13.420;2022-09-09T00:44:51;20.88;;;11.00;;
72573;SDS011;60603;52.548;13.420;2022-09-09T00:47:47;19.45;;;10.20;;
72573;SDS011;60603;52.548;13.420;2022-09-09T00:53:05;20.50;;;10.85;;
72573;SDS011;60603;52.548;13.420;2022-09-09T00:58:38;22.38;;;10.70;;
72573;SDS011;60603;52.548;13.420;2022-09-09T01:01:10;21.25;;;10.55;;
72573;SDS011;60603;52.548;13.420;2022-09-09T01:03:40;19.90;;;9.82;;
72573;SDS011;60603;52.548;13.420;2022-09-09T01:06:15;19.10;;;10.77;;
72573;SDS011;60603;52.548;13.420;2022-09-09T01:09:02;19.23;;;10.70;;
72573;SDS011;60603;52.548;13.420;2022-09-09T01:11:40;21.30;;;11.02;;
72573;SDS011;60603;52.548;13.420;2022-09-09T01:22:39;20.40;;;11.23;;
72573;SDS011;60603;52.548;13.420;2022-09-09T01:25:18;22.50;;;11.32;;
72573;SDS011;60603;52.548;13.420;2022-09-09T01:27:46;21.17;;;11.88;;
72573;SDS011;60603;52.548;13.420;2022-09-09T01:30:14;20.77;;;11.30;;
72573;SDS011;60603;52.548;13.420;2022-09-09T01:32:42;20.15;;;11.00;;
72573;SDS011;60603;52.548;13.420;2022-09-09T01:35:15;19.75;;;11.35;;
72573;SDS011;60603;52.548;13.420;2022-09-09T01:37:49;21.48;;;11.63;;
72573;SDS011;60603;52.548;13.420;2022-09-09T01:40:15;20.55;;;11.38;;
72573;SDS011;60603;52.548;13.420;2022-09-09T01:42:41;20.90;;;11.02;;
72573;SDS011;60603;52.548;13.420;2022-09-09T01:45:07;22.15;;;11.27;;
72573;SDS011;60603;52.548;13.420;2022-09-09T01:47:33;23.70;;;11.63;;
72573;SDS011;60603;52.548;13.420;2022-09-09T01:49:59;20.42;;;11.68;;
72573;SDS011;60603;52.548;13.420;2022-09-09T01:52:26;20.20;;;10.98;;
72573;SDS011;60603;52.548;13.420;2022-09-09T01:54:51;19.92;;;11.40;;
72573;SDS011;60603;52.548;13.420;2022-09-09T01:57:18;21.35;;;10.68;;
72573;SDS011;60603;52.548;13.420;2022-09-09T02:11:13;20.77;;;10.63;;
72573;SDS011;60603;52.548;13.420;2022-09-09T02:13:41;19.17;;;10.57;;
72573;SDS011;60603;52.548;13.420;2022-09-09T02:16:21;21.17;;;10.50;;
72573;SDS011;60603;52.548;13.420;2022-09-09T02:18:51;18.63;;;10.05;;
72573;SDS011;60603;52.548;13.420;2022-09-09T02:23:54;15.95;;;8.90;;
72573;SDS011;60603;52.548;13.420;2022-09-09T02:26:22;18.58;;;9.30;;
72573;SDS011;60603;52.548;13.420;2022-09-09T02:28:49;18.40;;;9.80;;
72573;SDS011;60603;52.548;13.420;2022-09-09T02:31:17;16.63;;;9.65;;
72573;SDS011;60603;52.548;13.420;2022-09-09T02:33:46;17.50;;;9.32;;
72573;SDS011;60603;52.548;13.420;2022-09-09T02:36:15;17.85;;;10.05;;
72573;SDS011;60603;52.548;13.420;2022-09-09T02:38:47;16.20;;;8.82;;
72573;SDS011;60603;52.548;13.420;2022-09-09T02:41:19;17.63;;;9.57;;
72573;SDS011;60603;52.548;13.420;2022-09-09T02:43:47;17.15;;;9.02;;
72573;SDS011;60603;52.548;13.420;2022-09-09T02:46:19;15.88;;;9.00;;
72573;SDS011;60603;52.548;13.420;2022-09-09T02:48:57;17.20;;;9.20;;
72573;SDS011;60603;52.548;13.420;2022-09-09T02:56:52;17.67;;;9.65;;
72573;SDS011;60603;52.548;13.420;2022-09-09T02:59:22;16.65;;;9.13;;
72573;SDS011;60603;52.548;13.420;2022-09-09T03:01:48;17.50;;;9.13;;
72573;SDS011;60603;52.548;13.420;2022-09-09T03:04:13;18.48;;;9.18;;
72573;SDS011;60603;52.548;13.420;2022-09-09T03:06:40;17.58;;;9.70;;
72573;SDS011;60603;52.548;13.420;2022-09-09T03:09:05;16.17;;;9.07;;
72573;SDS011;60603;52.548;13.420;2022-09-09T03:11:31;17.85;;;9.27;;
72573;SDS011;60603;52.548;13.420;2022-09-09T03:13:57;18.92;;;9.50;;
72573;SDS011;60603;52.548;13.420;2022-09-09T03:16:23;17.85;;;10.05;;
72573;SDS011;60603;52.548;13.420;2022-09-09T03:18:48;19.23;;;9.65;;
72573;SDS011;60603;52.548;13.420;2022-09-09T03:21:14;16.98;;;9.10;;
72573;SDS011;60603;52.548;13.420;2022-09-09T03:23:40;17.27;;;9.75;;
72573;SDS011;60603;52.548;13.420;2022-09-09T03:26:06;19.40;;;9.73;;
72573;SDS011;60603;52.548;13.420;2022-09-09T03:28:32;17.25;;;9.65;;
72573;SDS011;60603;52.548;13.420;2022-09-09T03:31:01;18.88;;;9.80;;
72573;SDS011;60603;52.548;13.420;2022-09-09T03:33:29;18.23;;;10.27;;
72573;SDS011;60603;52.548;13.420;2022-09-09T03:35:55;18.17;;;9.82;;
72573;SDS011;60603;52.548;13.420;2022-09-09T03:38:22;18.55;;;9.02;;
72573;SDS011;60603;52.548;13.420;2022-09-09T03:40:52;17.83;;;9.18;;
72573;SDS011;60603;52.548;13.420;2022-09-09T03:43:24;17.02;;;9.13;;
72573;SDS011;60603;52.548;13.420;2022-09-09T03:45:50;15.85;;;8.55;;
72573;SDS011;60603;52.548;13.420;2022-09-09T03:48:17;16.13;;;9.20;;
72573;SDS011;60603;52.548;13.420;2022-09-09T03:50:46;18.85;;;9.05;;
72573;SDS011;60603;52.548;13.420;2022-09-09T03:53:13;17.52;;;9.25;;
72573;SDS011;60603;52.548;13.420;2022-09-09T03:55:43;15.90;;;8.90;;
72573;SDS011;60603;52.548;13.420;2022-09-09T03:58:09;18.10;;;9.70;;
72573;SDS011;60603;52.548;13.420;2022-09-09T04:00:36;19.08;;;8.60;;
72573;SDS011;60603;52.548;13.420;2022-09-09T04:03:01;16.83;;;8.77;;
72573;SDS011;60603;52.548;13.420;2022-09-09T04:05:27;16.38;;;8.52;;
72573;SDS011;60603;52.548;13.420;2022-09-09T04:07:53;15.68;;;9.07;;
72573;SDS011;60603;52.548;13.420;2022-09-09T04:10:19;16.75;;;9.10;;
72573;SDS011;60603;52.548;13.420;2022-09-09T04:12:46;15.82;;;8.45;;
72573;SDS011;60603;52.548;13.420;2022-09-09T04:15:12;18.27;;;8.80;;
72573;SDS011;60603;52.548;13.420;2022-09-09T04:17:38;15.85;;;8.52;;
72573;SDS011;60603;52.548;13.420;2022-09-09T04:20:04;17.60;;;9.13;;
72573;SDS011;60603;52.548;13.420;2022-09-09T04:22:32;18.00;;;9.32;;
72573;SDS011;60603;52.548;13.420;2022-09-09T04:24:59;14.18;;;8.02;;
72573;SDS011;60603;52.548;13.420;2022-09-09T04:27:25;15.57;;;8.18;;
72573;SDS011;60603;52.548;13.420;2022-09-09T04:29:50;19.45;;;9.63;;
72573;SDS011;60603;52.548;13.420;2022-09-09T04:32:16;15.88;;;9.00;;
72573;SDS011;60603;52.548;13.420;2022-09-09T04:34:42;13.73;;;7.45;;
72573;SDS011;60603;52.548;13.420;2022-09-09T04:37:08;13.98;;;7.43;;
72573;SDS011;60603;52.548;13.420;2022-09-09T04:39:33;13.43;;;7.63;;
72573;SDS011;60603;52.548;13.420;2022-09-09T04:41:59;17.08;;;7.72;;
72573;SDS011;60603;52.548;13.420;2022-09-09T04:44:25;14.40;;;8.07;;
72573;SDS011;60603;52.548;13.420;2022-09-09T04:46:50;12.63;;;7.22;;
72573;SDS011;60603;52.548;13.420;2022-09-09T04:49:16;12.63;;;6.80;;
72573;SDS011;60603;52.548;13.420;2022-09-09T04:51:43;12.32;;;7.57;;
72573;SDS011;60603;52.548;13.420;2022-09-09T04:54:08;14.82;;;6.10;;
72573;SDS011;60603;52.548;13.420;2022-09-09T04:56:34;9.82;;;6.32;;
72573;SDS011;60603;52.548;13.420;2022-09-09T04:59:01;12.18;;;6.60;;
72573;SDS011;60603;52.548;13.420;2022-09-09T05:01:28;12.70;;;6.07;;
72573;SDS011;60603;52.548;13.420;2022-09-09T05:03:54;11.07;;;5.85;;
72573;SDS011;60603;52.548;13.420;2022-09-09T05:06:20;12.05;;;5.70;;
72573;SDS011;60603;52.548;13.420;2022-09-09T05:08:47;10.70;;;6.20;;
72573;SDS011;60603;52.548;13.420;2022-09-09T05:11:22;10.98;;;5.95;;
72573;SDS011;60603;52.548;13.420;2022-09-09T05:13:52;11.43;;;5.90;;
72573;SDS011;60603;52.548;13.420;2022-09-09T05:16:19;9.25;;;5.13;;
72573;SDS011;60603;52.548;13.420;2022-09-09T05:18:45;12.40;;;5.97;;
72573;SDS011;60603;52.548;13.420;2022-09-09T05:21:12;9.20;;;5.22;;
72573;SDS011;60603;52.548;13.420;2022-09-09T05:23:39;10.32;;;5.15;;
72573;SDS011;60603;52.548;13.420;2022-09-09T05:26:05;11.23;;;5.75;;
72573;SDS011;60603;52.548;13.420;2022-09-09T05:28:35;10.68;;;5.20;;
72573;SDS011;60603;52.548;13.420;2022-09-09T05:31:03;9.15;;;5.75;;
72573;SDS011;60603;52.548;13.420;2022-09-09T05:33:31;11.43;;;7.38;;
72573;SDS011;60603;52.548;13.420;2022-09-09T05:35:58;12.00;;;5.00;;
72573;SDS011;60603;52.548;13.420;2022-09-09T05:38:24;7.68;;;5.15;;
72573;SDS011;60603;52.548;13.420;2022-09-09T05:40:51;11.23;;;4.97;;
72573;SDS011;60603;52.548;13.420;2022-09-09T05:43:18;9.23;;;4.53;;
72573;SDS011;60603;52.548;13.420;2022-09-09T05:45:46;11.80;;;4.80;;
72573;SDS011;60603;52.548;13.420;2022-09-09T05:48:13;18.10;;;6.15;;
72573;SDS011;60603;52.548;13.420;2022-09-09T05:50:40;9.35;;;4.38;;
72573;SDS011;60603;52.548;13.420;2022-09-09T05:53:06;11.50;;;6.00;;
72573;SDS011;60603;52.548;13.420;2022-09-09T05:55:32;9.43;;;4.50;;
72573;SDS011;60603;52.548;13.420;2022-09-09T05:57:57;7.10;;;3.65;;
72573;SDS011;60603;52.548;13.420;2022-09-09T06:00:23;7.22;;;3.75;;
72573;SDS011;60603;52.548;13.420;2022-09-09T06:02:50;6.95;;;3.78;;
72573;SDS011;60603;52.548;13.420;2022-09-09T06:05:17;6.82;;;3.42;;
72573;SDS011;60603;52.548;13.420;2022-09-09T06:07:44;9.73;;;4.43;;
72573;SDS011;60603;52.548;13.420;2022-09-09T06:10:10;8.13;;;3.80;;
72573;SDS011;60603;52.548;13.420;2022-09-09T06:12:39;8.75;;;3.95;;
72573;SDS011;60603;52.548;13.420;2022-09-09T06:15:05;8.57;;;4.00;;
72573;SDS011;60603;52.548;13.420;2022-09-09T06:17:31;6.45;;;3.00;;
72573;SDS011;60603;52.548;13.420;2022-09-09T06:19:56;5.57;;;2.78;;
72573;SDS011;60603;52.548;13.420;2022-09-09T06:22:22;5.53;;;3.03;;
72573;SDS011;60603;52.548;13.420;2022-09-09T06:24:48;11.38;;;4.50;;
72573;SDS011;60603;52.548;13.420;2022-09-09T06:27:14;6.22;;;3.35;;
72573;SDS011;60603;52.548;13.420;2022-09-09T06:29:40;6.13;;;2.63;;
72573;SDS011;60603;52.548;13.420;2022-09-09T06:32:05;8.63;;;2.97;;
72573;SDS011;60603;52.548;13.420;2022-09-09T06:34:33;5.53;;;3.42;;
72573;SDS011;60603;52.548;13.420;2022-09-09T06:37:00;6.35;;;2.83;;
72573;SDS011;60603;52.548;13.420;2022-09-09T06:39:26;8.70;;;3.15;;
72573;SDS011;60603;52.548;13.420;2022-09-09T06:41:51;7.10;;;2.63;;
72573;SDS011;60603;52.548;13.420;2022-09-09T06:44:18;7.70;;;3.17;;
72573;SDS011;60603;52.548;13.420;2022-09-09T06:46:44;8.55;;;3.10;;
72573;SDS011;60603;52.548;13.420;2022-09-09T06:49:13;6.13;;;2.95;;
72573;SDS011;60603;52.548;13.420;2022-09-09T06:51:39;7.00;;;3.20;;
72573;SDS011;60603;52.548;13.420;2022-09-09T06:54:08;6.45;;;2.72;;
72573;SDS011;60603;52.548;13.420;2022-09-09T06:56:35;7.45;;;2.63;;
72573;SDS011;60603;52.548;13.420;2022-09-09T06:59:03;7.22;;;3.03;;
72573;SDS011;60603;52.548;13.420;2022-09-09T07:01:31;7.47;;;3.00;;
72573;SDS011;60603;52.548;13.420;2022-09-09T07:03:58;7.60;;;2.90;;
72573;SDS011;60603;52.548;13.420;2022-09-09T07:06:26;8.77;;;2.88;;
72573;SDS011;60603;52.548;13.420;2022-09-09T07:08:54;4.47;;;2.55;;
72573;SDS011;60603;52.548;13.420;2022-09-09T07:11:28;6.13;;;2.70;;
72573;SDS011;60603;52.548;13.420;2022-09-09T07:13:56;7.70;;;2.83;;
72573;SDS011;60603;52.548;13.420;2022-09-09T07:16:22;6.75;;;2.28;;
72573;SDS011;60603;52.548;13.420;2022-09-09T07:18:51;4.65;;;1.90;;
72573;SDS011;60603;52.548;13.420;2022-09-09T07:21:18;8.63;;;3.80;;
72573;SDS011;60603;52.548;13.420;2022-09-09T07:23:44;4.45;;;2.13;;
72573;SDS011;60603;52.548;13.420;2022-09-09T07:26:14;4.45;;;2.00;;
72573;SDS011;60603;52.548;13.420;2022-09-09T07:28:41;10.38;;;3.28;;
72573;SDS011;60603;52.548;13.420;2022-09-09T07:31:12;9.65;;;3.55;;
72573;SDS011;60603;52.548;13.420;2022-09-09T07:33:42;6.70;;;3.25;;
72573;SDS011;60603;52.548;13.420;2022-09-09T07:38:50;6.93;;;2.20;;
72573;SDS011;60603;52.548;13.420;2022-09-09T07:41:20;4.25;;;1.92;;
72573;SDS011;60603;52.548;13.420;2022-09-09T07:43:48;6.45;;;2.38;;
72573;SDS011;60603;52.548;13.420;2022-09-09T07:46:15;6.03;;;2.40;;
72573;SDS011;60603;52.548;13.420;2022-09-09T07:48:46;5.60;;;2.20;;
72573;SDS011;60603;52.548;13.420;2022-09-09T07:51:26;4.88;;;2.25;;
72573;SDS011;60603;52.548;13.420;2022-09-09T07:53:56;8.30;;;2.80;;
72573;SDS011;60603;52.548;13.420;2022-09-09T07:56:23;9.65;;;3.83;;
72573;SDS011;60603;52.548;13.420;2022-09-09T07:58:50;6.60;;;3.10;;
72573;SDS011;60603;52.548;13.420;2022-09-09T08:01:24;5.47;;;2.35;;
72573;SDS011;60603;52.548;13.420;2022-09-09T08:03:59;8.02;;;2.40;;
72573;SDS011;60603;52.548;13.420;2022-09-09T08:06:27;5.20;;;2.17;;
72573;SDS011;60603;52.548;13.420;2022-09-09T08:09:13;5.18;;;2.15;;
72573;SDS011;60603;52.548;13.420;2022-09-09T08:11:39;7.63;;;2.05;;
72573;SDS011;60603;52.548;13.420;2022-09-09T08:14:06;8.40;;;2.63;;
72573;SDS011;60603;52.548;13.420;2022-09-09T08:16:33;6.75;;;2.03;;
72573;SDS011;60603;52.548;13.420;2022-09-09T08:19:01;4.82;;;2.25;;
72573;SDS011;60603;52.548;13.420;2022-09-09T08:21:28;5.63;;;2.30;;
72573;SDS011;60603;52.548;13.420;2022-09-09T08:23:56;6.93;;;2.10;;
72573;SDS011;60603;52.548;13.420;2022-09-09T08:26:24;7.03;;;2.08;;
72573;SDS011;60603;52.548;13.420;2022-09-09T08:28:53;8.68;;;1.80;;
72573;SDS011;60603;52.548;13.420;2022-09-09T08:31:22;14.13;;;2.47;;
72573;SDS011;60603;52.548;13.420;2022-09-09T08:33:49;6.28;;;2.03;;
72573;SDS011;60603;52.548;13.420;2022-09-09T08:36:17;5.63;;;1.77;;
72573;SDS011;60603;52.548;13.420;2022-09-09T08:38:51;6.18;;;2.00;;
72573;SDS011;60603;52.548;13.420;2022-09-09T08:41:30;5.90;;;1.90;;
72573;SDS011;60603;52.548;13.420;2022-09-09T08:44:40;6.85;;;2.13;;
72573;SDS011;60603;52.548;13.420;2022-09-09T08:47:18;10.02;;;3.35;;
72573;SDS011;60603;52.548;13.420;2022-09-09T08:55:49;8.68;;;3.45;;
72573;SDS011;60603;52.548;13.420;2022-09-09T09:03:28;9.32;;;3.45;;
72573;SDS011;60603;52.548;13.420;2022-09-09T09:09:00;7.10;;;2.63;;
72573;SDS011;60603;52.548;13.420;2022-09-09T09:11:34;6.53;;;2.17;;
72573;SDS011;60603;52.548;13.420;2022-09-09T09:14:03;7.50;;;2.08;;
72573;SDS011;60603;52.548;13.420;2022-09-09T09:19:29;7.68;;;2.28;;
72573;SDS011;60603;52.548;13.420;2022-09-09T09:22:11;5.20;;;2.00;;
72573;SDS011;60603;52.548;13.420;2022-09-09T09:30:01;6.82;;;1.83;;
72573;SDS011;60603;52.548;13.420;2022-09-09T09:32:36;5.90;;;1.88;;
72573;SDS011;60603;52.548;13.420;2022-09-09T09:35:06;3.55;;;1.50;;
72573;SDS011;60603;52.548;13.420;2022-09-09T09:37:35;9.35;;;2.20;;
72573;SDS011;60603;52.548;13.420;2022-09-09T09:40:11;6.47;;;2.47;;
72573;SDS011;60603;52.548;13.420;2022-09-09T09:42:38;4.28;;;1.65;;
72573;SDS011;60603;52.548;13.420;2022-09-09T09:45:20;7.05;;;1.92;;
72573;SDS011;60603;52.548;13.420;2022-09-09T09:47:57;9.73;;;2.25;;
72573;SDS011;60603;52.548;13.420;2022-09-09T09:50:24;5.47;;;2.20;;
72573;SDS011;60603;52.548;13.420;2022-09-09T09:52:54;8.07;;;2.40;;
72573;SDS011;60603;52.548;13.420;2022-09-09T09:55:24;5.35;;;1.70;;
72573;SDS011;60603;52.548;13.420;2022-09-09T09:57:50;4.95;;;2.00;;
72573;SDS011;60603;52.548;13.420;2022-09-09T10:00:21;4.97;;;1.77;;
72573;SDS011;60603;52.548;13.420;2022-09-09T10:02:48;5.68;;;1.55;;
72573;SDS011;60603;52.548;13.420;2022-09-09T10:05:18;3.95;;;1.80;;
72573;SDS011;60603;52.548;13.420;2022-09-09T10:07:47;5.60;;;1.90;;
72573;SDS011;60603;52.548;13.420;2022-09-09T10:10:27;6.00;;;1.80;;
72573;SDS011;60603;52.548;13.420;2022-09-09T10:13:58;5.25;;;2.63;;
72573;SDS011;60603;52.548;13.420;2022-09-09T10:19:33;4.82;;;1.98;;
72573;SDS011;60603;52.548;13.420;2022-09-09T10:22:33;7.75;;;2.22;;
72573;SDS011;60603;52.548;13.420;2022-09-09T10:30:34;9.35;;;2.83;;
72573;SDS011;60603;52.548;13.420;2022-09-09T10:35:35;5.65;;;1.80;;
72573;SDS011;60603;52.548;13.420;2022-09-09T10:41:24;4.57;;;1.70;;
72573;SDS011;60603;52.548;13.420;2022-09-09T10:44:05;5.28;;;1.42;;
72573;SDS011;60603;52.548;13.420;2022-09-09T10:49:37;7.50;;;1.90;;
72573;SDS011;60603;52.548;13.420;2022-09-09T10:55:11;5.22;;;1.60;;
72573;SDS011;60603;52.548;13.420;2022-09-09T11:00:30;5.07;;;1.92;;
72573;SDS011;60603;52.548;13.420;2022-09-09T11:03:02;6.05;;;1.95;;
72573;SDS011;60603;52.548;13.420;2022-09-09T11:05:49;7.68;;;1.73;;
72573;SDS011;60603;52.548;13.420;2022-09-09T11:08:20;6.65;;;1.70;;
72573;SDS011;60603;52.548;13.420;2022-09-09T11:16:27;5.80;;;1.90;;
72573;SDS011;60603;52.548;13.420;2022-09-09T11:21:24;5.28;;;1.70;;
72573;SDS011;60603;52.548;13.420;2022-09-09T11:23:54;5.22;;;1.45;;
72573;SDS011;60603;52.548;13.420;2022-09-09T11:26:29;4.93;;;1.70;;
72573;SDS011;60603;52.548;13.420;2022-09-09T11:29:14;4.68;;;1.90;;
72573;SDS011;60603;52.548;13.420;2022-09-09T11:34:42;6.50;;;2.00;;
72573;SDS011;60603;52.548;13.420;2022-09-09T11:40:04;4.90;;;1.80;;
72573;SDS011;60603;52.548;13.420;2022-09-09T11:42:33;3.85;;;1.50;;
72573;SDS011;60603;52.548;13.420;2022-09-09T11:45:08;6.20;;;1.92;;
72573;SDS011;60603;52.548;13.420;2022-09-09T11:47:56;7.13;;;2.10;;
72573;SDS011;60603;52.548;13.420;2022-09-09T11:52:49;9.35;;;2.45;;
72573;SDS011;60603;52.548;13.420;2022-09-09T11:55:26;4.93;;;1.60;;
72573;SDS011;60603;52.548;13.420;2022-09-09T12:00:37;5.00;;;2.00;;
72573;SDS011;60603;52.548;13.420;2022-09-09T12:05:54;5.32;;;2.03;;
72573;SDS011;60603;52.548;13.420;2022-09-09T12:08:24;3.88;;;1.35;;
72573;SDS011;60603;52.548;13.420;2022-09-09T12:10:54;3.55;;;1.13;;
72573;SDS011;60603;52.548;13.420;2022-09-09T12:13:22;5.05;;;1.73;;
72573;SDS011;60603;52.548;13.420;2022-09-09T12:15:51;5.22;;;1.67;;
72573;SDS011;60603;52.548;13.420;2022-09-09T12:18:40;3.28;;;1.67;;
72573;SDS011;60603;52.548;13.420;2022-09-09T12:23:56;6.38;;;1.73;;
72573;SDS011;60603;52.548;13.420;2022-09-09T12:34:38;4.55;;;1.52;;
72573;SDS011;60603;52.548;13.420;2022-09-09T12:37:23;5.35;;;1.45;;
72573;SDS011;60603;52.548;13.420;2022-09-09T12:39:55;4.38;;;1.52;;
72573;SDS011;60603;52.548;13.420;2022-09-09T12:42:25;5.50;;;2.70;;
72573;SDS011;60603;52.548;13.420;2022-09-09T12:44:52;3.55;;;1.13;;
72573;SDS011;60603;52.548;13.420;2022-09-09T12:50:19;3.95;;;1.48;;
72573;SDS011;60603;52.548;13.420;2022-09-09T12:52:47;9.68;;;2.63;;
72573;SDS011;60603;52.548;13.420;2022-09-09T12:55:19;4.75;;;1.48;;
72573;SDS011;60603;52.548;13.420;2022-09-09T12:57:47;5.45;;;1.38;;
72573;SDS011;60603;52.548;13.420;2022-09-09T13:00:24;5.35;;;1.30;;
72573;SDS011;60603;52.548;13.420;2022-09-09T13:02:53;3.80;;;1.20;;
72573;SDS011;60603;52.548;13.420;2022-09-09T13:05:22;5.63;;;1.52;;
72573;SDS011;60603;52.548;13.420;2022-09-09T13:07:49;3.97;;;1.20;;
72573;SDS011;60603;52.548;13.420;2022-09-09T13:10:20;2.90;;;1.20;;
72573;SDS011;60603;52.548;13.420;2022-09-09T13:12:49;2.72;;;0.80;;
72573;SDS011;60603;52.548;13.420;2022-09-09T13:15:20;6.47;;;1.65;;
72573;SDS011;60603;52.548;13.420;2022-09-09T13:17:51;3.65;;;1.77;;
72573;SDS011;60603;52.548;13.420;2022-09-09T13:20:18;4.32;;;1.30;;
72573;SDS011;60603;52.548;13.420;2022-09-09T13:22:45;5.00;;;1.77;;
72573;SDS011;60603;52.548;13.420;2022-09-09T13:25:32;3.17;;;1.10;;
72573;SDS011;60603;52.548;13.420;2022-09-09T13:28:00;9.85;;;3.20;;
72573;SDS011;60603;52.548;13.420;2022-09-09T13:30:34;4.32;;;1.45;;
72573;SDS011;60603;52.548;13.420;2022-09-09T13:35:47;5.22;;;1.65;;
72573;SDS011;60603;52.548;13.420;2022-09-09T13:38:24;5.28;;;1.60;;
72573;SDS011;60603;52.548;13.420;2022-09-09T13:43:24;5.03;;;1.30;;
72573;SDS011;60603;52.548;13.420;2022-09-09T13:45:58;4.97;;;1.70;;
72573;SDS011;60603;52.548;13.420;2022-09-09T13:48:26;5.43;;;1.50;;
72573;SDS011;60603;52.548;13.420;2022-09-09T13:50:56;3.95;;;1.75;;
72573;SDS011;60603;52.548;13.420;2022-09-09T13:53:24;3.60;;;1.23;;
72573;SDS011;60603;52.548;13.420;2022-09-09T13:55:52;4.50;;;1.45;;
72573;SDS011;60603;52.548;13.420;2022-09-09T13:58:18;3.80;;;1.30;;
72573;SDS011;60603;52.548;13.420;2022-09-09T14:00:44;4.95;;;1.30;;
72573;SDS011;60603;52.548;13.420;2022-09-09T14:03:11;6.80;;;1.50;;
72573;SDS011;60603;52.548;13.420;2022-09-09T14:05:36;4.20;;;1.48;;
72573;SDS011;60603;52.548;13.420;2022-09-09T14:08:03;9.00;;;3.95;;
72573;SDS011;60603;52.548;13.420;2022-09-09T14:10:30;5.68;;;1.48;;
72573;SDS011;60603;52.548;13.420;2022-09-09T14:12:56;3.47;;;1.40;;
72573;SDS011;60603;52.548;13.420;2022-09-09T14:15:22;12.02;;;1.95;;
72573;SDS011;60603;52.548;13.420;2022-09-09T14:17:48;6.80;;;1.98;;
72573;SDS011;60603;52.548;13.420;2022-09-09T14:20:14;5.13;;;1.90;;
72573;SDS011;60603;52.548;13.420;2022-09-09T14:22:41;4.05;;;1.42;;
72573;SDS011;60603;52.548;13.420;2022-09-09T14:25:07;5.93;;;1.35;;
72573;SDS011;60603;52.548;13.420;2022-09-09T14:27:33;5.55;;;1.08;;
72573;SDS011;60603;52.548;13.420;2022-09-09T14:29:59;5.85;;;1.58;;
72573;SDS011;60603;52.548;13.420;2022-09-09T14:32:26;4.80;;;1.45;;
72573;SDS011;60603;52.548;13.420;2022-09-09T14:34:52;5.05;;;1.23;;
72573;SDS011;60603;52.548;13.420;2022-09-09T14:37:19;5.97;;;1.60;;
72573;SDS011;60603;52.548;13.420;2022-09-09T14:39:46;6.85;;;1.50;;
72573;SDS011;60603;52.548;13.420;2022-09-09T14:42:14;6.53;;;1.50;;
72573;SDS011;60603;52.548;13.420;2022-09-09T14:44:40;4.90;;;1.35;;
72573;SDS011;60603;52.548;13.420;2022-09-09T14:47:06;7.57;;;1.70;;
72573;SDS011;60603;52.548;13.420;2022-09-09T14:52:03;4.53;;;1.20;;
72573;SDS011;60603;52.548;13.420;2022-09-09T14:54:30;5.28;;;1.10;;
72573;SDS011;60603;52.548;13.420;2022-09-09T14:56:57;4.75;;;1.30;;
72573;SDS011;60603;52.548;13.420;2022-09-09T14:59:23;7.00;;;2.40;;
72573;SDS011;60603;52.548;13.420;2022-09-09T15:01:49;4.80;;;1.40;;
72573;SDS011;60603;52.548;13.420;2022-09-09T15:04:14;5.68;;;1.95;;
72573;SDS011;60603;52.548;13.420;2022-09-09T15:06:42;7.78;;;1.83;;
72573;SDS011;60603;52.548;13.420;2022-09-09T15:09:10;5.97;;;1.80;;
72573;SDS011;60603;52.548;13.420;2022-09-09T15:11:36;6.75;;;2.03;;
72573;SDS011;60603;52.548;13.420;2022-09-09T15:14:03;4.90;;;1.60;;
72573;SDS011;60603;52.548;13.420;2022-09-09T15:16:30;4.50;;;1.50;;
72573;SDS011;60603;52.548;13.420;2022-09-09T15:18:57;6.32;;;1.58;;
72573;SDS011;60603;52.548;13.420;2022-09-09T15:21:25;5.47;;;1.23;;
72573;SDS011;60603;52.548;13.420;2022-09-09T15:23:53;6.15;;;1.80;;
72573;SDS011;60603;52.548;13.420;2022-09-09T15:26:18;5.20;;;1.55;;
72573;SDS011;60603;52.548;13.420;2022-09-09T15:28:45;3.22;;;1.20;;
72573;SDS011;60603;52.548;13.420;2022-09-09T15:33:46;4.30;;;1.80;;
72573;SDS011;60603;52.548;13.420;2022-09-09T15:36:39;5.22;;;1.50;;
72573;SDS011;60603;52.548;13.420;2022-09-09T15:39:06;5.97;;;1.60;;
72573;SDS011;60603;52.548;13.420;2022-09-09T15:41:35;5.72;;;1.40;;
72573;SDS011;60603;52.548;13.420;2022-09-09T15:44:02;4.38;;;1.40;;
72573;SDS011;60603;52.548;13.420;2022-09-09T15:48:58;6.63;;;1.60;;
72573;SDS011;60603;52.548;13.420;2022-09-09T15:51:44;4.05;;;1.52;;
72573;SDS011;60603;52.548;13.420;2022-09-09T15:54:16;3.08;;;1.20;;
72573;SDS011;60603;52.548;13.420;2022-09-09T15:56:43;5.78;;;1.35;;
72573;SDS011;60603;52.548;13.420;2022-09-09T15:59:10;4.25;;;1.45;;
72573;SDS011;60603;52.548;13.420;2022-09-09T16:01:37;3.25;;;1.00;;
72573;SDS011;60603;52.548;13.420;2022-09-09T16:04:04;5.63;;;1.33;;
72573;SDS011;60603;52.548;13.420;2022-09-09T16:06:31;5.50;;;1.23;;
72573;SDS011;60603;52.548;13.420;2022-09-09T16:08:59;9.82;;;2.10;;
72573;SDS011;60603;52.548;13.420;2022-09-09T16:11:29;4.35;;;1.40;;
72573;SDS011;60603;52.548;13.420;2022-09-09T16:13:56;6.28;;;1.58;;
72573;SDS011;60603;52.548;13.420;2022-09-09T16:16:23;7.45;;;1.60;;
72573;SDS011;60603;52.548;13.420;2022-09-09T16:18:53;4.45;;;1.70;;
72573;SDS011;60603;52.548;13.420;2022-09-09T16:21:24;5.47;;;1.73;;
72573;SDS011;60603;52.548;13.420;2022-09-09T16:23:54;4.43;;;2.05;;
72573;SDS011;60603;52.548;13.420;2022-09-09T16:26:21;4.20;;;1.50;;
72573;SDS011;60603;52.548;13.420;2022-09-09T16:28:47;9.57;;;3.50;;
72573;SDS011;60603;52.548;13.420;2022-09-09T16:31:18;7.30;;;2.97;;
72573;SDS011;60603;52.548;13.420;2022-09-09T16:33:46;9.23;;;3.08;;
72573;SDS011;60603;52.548;13.420;2022-09-09T16:36:16;8.35;;;3.15;;
72573;SDS011;60603;52.548;13.420;2022-09-09T16:38:46;7.07;;;2.33;;
72573;SDS011;60603;52.548;13.420;2022-09-09T16:41:13;4.75;;;1.63;;
72573;SDS011;60603;52.548;13.420;2022-09-09T16:43:39;7.05;;;2.20;;
72573;SDS011;60603;52.548;13.420;2022-09-09T16:51:09;5.63;;;2.03;;
72573;SDS011;60603;52.548;13.420;2022-09-09T16:53:41;5.75;;;1.80;;
72573;SDS011;60603;52.548;13.420;2022-09-09T16:56:09;8.63;;;2.80;;
72573;SDS011;60603;52.548;13.420;2022-09-09T16:58:39;6.40;;;2.45;;